Smith Valley, Nevada Weather observations

Data are for 10 minute period ending at time listed.
 Day   Time   Solar   Ave.   Ave.  Ave.  Vector  Max.   Baro.   Total    
  of    of     Rad.   Air    Rel.  Wind   Wind   Wind  Press.  Precip.   
Year   Day            Temp.  Hum.  Speed  Dir.   Gust                    
2015   (PST)  Kw/m2    F      %     mph   deg.    mph    mb.     in.     
-------------------------------------------------------------------------
 185   12:50   0.15   73.0    60    3.2   347     4.0   855.0    0.00 
 185   13:00   0.19   73.2    62    2.5    15     4.7   854.9    0.00 
 185   13:10   0.23   73.3    62    3.2   332     5.3   855.2    0.00 
 185   13:20   0.21   73.6    63    4.6    27     6.6   855.3    0.00 
 185   13:30   0.18   73.8    61    5.3    29     8.1   855.4    0.00 
 185   13:40   0.19   73.6    60    6.0    19     8.3   855.5    0.00 
 185   13:50   0.28   74.2    54    5.2    40    11.3   855.6    0.00 
 185   14:00   0.33   74.2    52   10.1    76    15.3   855.7    0.00 
 185   14:10   0.31   73.0    55   11.2    67    17.0   855.8    0.00 
 185   14:20   0.24   72.0    58   10.0    69    15.6   856.1    0.00 
 185   14:30   0.17   71.3    61    9.8    67    16.1   856.3    0.00 
 185   14:40   0.12   70.9    63    8.6    65    17.6   856.4    0.00 
 185   14:50   0.11   71.1    62    5.6    24    10.5   856.4    0.00 
 185   15:00   0.10   71.0    62    2.6    71     7.8   856.3    0.00 
 185   15:10   0.08   70.8    64    2.3   297     6.9   856.4    0.00 
 185   15:20   0.07   69.7    67    7.7   329    11.6   856.5    0.00 
 185   15:30   0.07   68.9    67   10.6   340    16.7   856.8    0.00 
 185   15:40   0.08   67.7    72   10.3   358    15.4   856.8    0.00 
 185   15:50   0.08   66.7    74    7.3   343    12.4   856.6    0.00 
 185   16:00   0.09   66.3    75    6.9   358    10.7   856.5    0.00 
 185   16:10   0.07   66.6    74    4.2   340    10.2   856.0    0.00 
 185   16:20   0.09   67.0    73    4.2    64     7.9   855.4    0.00 
 185   16:30   0.13   66.8    73    6.8    83    11.5   855.0    0.00 
 185   16:40   0.15   67.2    72    3.9    76     7.1   855.2    0.00 
 185   16:50   0.10   67.9    71    2.1   115     3.3   855.1    0.00 
 185   17:00   0.07   67.8    72    4.3   170     7.4   855.3    0.00 
 185   17:10   0.06   67.4    72    4.4   171     6.9   855.4    0.00 
 185   17:20   0.08   67.0    75    4.4   181     7.6   855.7    0.00 
 185   17:30   0.13   67.3    74    3.9   172     6.7   855.8    0.00 
 185   17:40   0.21   68.4    70    2.5    89     4.6   855.8    0.00 
 185   17:50   0.15   68.8    66    3.1    75     4.9   855.7    0.00 
 185   18:00   0.16   68.8    65    1.9    48     4.7   855.7    0.00 
 185   18:10   0.10   68.5    65    4.0    13     5.3   855.7    0.00 
 185   18:20   0.07   67.8    66    2.1   353     4.2   855.7    0.00 
 185   18:30   0.05   67.3    69    2.0   295     3.4   855.7    0.00 
 185   18:40   0.03   67.0    70    0.3   233     1.7   855.7    0.00 
 185   18:50   0.02   66.6    71    0.4   160     0.7   855.8    0.00 
 185   19:00   0.01   65.6    75    1.5   167     2.0   855.8    0.00 
 185   19:10   0.01   64.2    80    2.1   170     3.4   855.8    0.00 
 185   19:20   0.01   62.8    83    0.4   164     2.6   855.7    0.00 
 185   19:30   0.00   62.2    84    0.5    94     2.1   855.7    0.00 
 185   19:40   0.00   62.0    85    1.7   170     2.6   855.7    0.00 
 185   19:50   0.00   62.3    83    1.3   102     2.4   855.8    0.00 
 185   20:00   0.00   61.3    85    0.5   349     1.5   856.0    0.00 
 185   20:10   0.00   61.5    85    2.0   248     2.9   856.0    0.00 
 185   20:20   0.00   61.9    83    2.7   249     3.9   856.0    0.00 
 185   20:30   0.00   61.2    84    2.4   287     3.7   856.1    0.00 
 185   20:40   0.00   60.4    84    2.3   223     2.9   856.1    0.00 
 185   20:50   0.00   59.2    86    0.4   260     1.9   856.2    0.00 
 185   21:00   0.00   58.5    87    0.3   302     1.1   856.3    0.00 
 185   21:10   0.00   58.4    89    0.9   272     1.8   856.4    0.00 
 185   21:20   0.00   57.5    89    1.1   205     3.4   856.4    0.00 
 185   21:30   0.00   57.3    90    2.7   198     3.7   856.5    0.00 
 185   21:40   0.00   57.3    90    2.2   220     3.6   856.5    0.00 
 185   21:50   0.00   57.3    90    1.4   286     2.9   856.4    0.00 
 185   22:00   0.00   56.9    90    0.7   238     1.7   856.4    0.00 
 185   22:10   0.00   56.9    90    0.6   282     1.7   856.4    0.00 
 185   22:20   0.00   56.9    90    0.7   284     2.0   856.3    0.00 
 185   22:30   0.00   56.1    90    1.4   114     2.0   856.3    0.00 
 185   22:40   0.00   55.6    91    1.9   139     2.6   856.1    0.00 
 185   22:50   0.00   55.2    91    1.1   136     2.0   856.0    0.00 
 185   23:00   0.00   55.2    92    3.0   146     5.3   856.0    0.00 
 185   23:10   0.00   55.6    92    2.9   149     4.5   856.0    0.00 
 185   23:20   0.00   55.5    92    2.3   127     3.1   856.0    0.00 
 185   23:30   0.00   55.7    92    0.8   113     1.8   855.9    0.00 
 185   23:40   0.00   55.3    91    2.0   156     3.1   855.8    0.00 
 185   23:50   0.00   55.0    91    1.5   100     2.4   855.8    0.00 
 186    0:00   0.00   54.8    91    2.0   129     3.4   855.7    0.00 
 186    0:10   0.00   53.5    91    2.0   236     3.6   855.7    0.00 
 186    0:20   0.00   53.1    91    0.2     1     1.4   855.7    0.00 
 186    0:30   0.00   53.3    92    0.6   357     1.5   855.5    0.00 
 186    0:40   0.00   53.3    92    0.7   134     2.3   855.5    0.00 
 186    0:50   0.00   54.0    93    0.8   158     1.5   855.4    0.00 
 186    1:00   0.00   53.7    92    1.6   150     2.6   855.4    0.00 
 186    1:10   0.00   53.5    92    0.6   201     1.8   855.4    0.00 
 186    1:20   0.00   52.5    92    0.7   214     1.7   855.4    0.00 
 186    1:30   0.00   52.0    92    2.4   206     3.4   855.4    0.00 
 186    1:40   0.00   51.7    93    1.7   168     3.4   855.4    0.00 
 186    1:50   0.00   52.1    93    0.9   161     1.7   855.3    0.00 
 186    2:00   0.00   51.9    93    0.4    54     3.2   855.3    0.00 
 186    2:10   0.00   51.1    93    1.4    42     2.3   855.2    0.00 
 186    2:20   0.00   50.6    93    2.0    69     3.2   855.2    0.00 
 186    2:30   0.00   50.7    94    1.5    39     2.3   855.2    0.00 
 186    2:40   0.00   51.5    97    1.4    15     2.7   855.2    0.00 
 186    2:50   0.00   50.6    93    1.1   300     2.3   855.3    0.00 
 186    3:00   0.00   50.1    94    1.0   289     2.6   855.4    0.00 
 186    3:10   0.00   50.7    97    3.0   290     3.5   855.4    0.00 
 186    3:20   0.00   50.3    94    1.4   306     3.2   855.5    0.00 
 186    3:30   0.00   50.6    97    1.6   293     2.6   855.6    0.00 
 186    3:40   0.00   50.2    94    0.6   272     1.9   855.7    0.00 
 186    3:50   0.00   50.1    97    0.0     0     0.0   855.7    0.00 
 186    4:00   0.00   50.6   100    1.2   262     2.5   855.7    0.00 
 186    4:10   0.00   49.8    97    0.3   309     1.0   855.7    0.00 
 186    4:20   0.00   50.4   100    1.0   344     1.5   855.8    0.00 
 186    4:30   0.00   50.5    97    1.8   138     3.6   855.9    0.00 
 186    4:40   0.01   49.5    97    1.6   162     2.6   856.1    0.00 
 186    4:50   0.01   48.8    99    1.4   142     3.0   856.2    0.00 
 186    5:00   0.03   48.6    99    0.4    73     2.0   856.3    0.00 
 186    5:10   0.06   49.4   100    0.9    63     1.8   856.4    0.00 
 186    5:20   0.10   50.3   103    0.5   186     1.2   856.5    0.00 
 186    5:30   0.13   51.4   100    0.8   209     1.6   856.5    0.00 
 186    5:40   0.15   53.2   100    0.6   113     1.2   856.5    0.00 
 186    5:50   0.18   55.0    96    1.7   120     2.9   856.5    0.00 
 186    6:00   0.21   56.1    93    1.5   114     2.7   856.5    0.00 
 186    6:10   0.23   57.7    91    0.8   116     1.7   856.4    0.00 
 186    6:20   0.26   59.8    85    0.8    73     1.8   856.4    0.00 
 186    6:30   0.29   60.6    80    1.5    75     2.3   856.4    0.00 
 186    6:40   0.32   60.9    80    1.9    85     3.1   856.4    0.00 
 186    6:50   0.34   61.8    78    1.6   117     3.5   856.4    0.00 
 186    7:00   0.37   62.3    76    2.0   144     3.3   856.5    0.00 
 186    7:10   0.40   63.4    74    1.1   118     2.9   856.6    0.00 
 186    7:20   0.43   65.5    70    0.8   291     2.4   856.7    0.00 
 186    7:30   0.47   65.5    70    0.9   285     2.5   856.7    0.00 
 186    7:40   0.50   66.7    65    0.6   280     2.7   856.6    0.00 
 186    7:50   0.53   67.5    63    0.9   218     2.4   856.6    0.00 
 186    8:00   0.56   67.7    66    1.3   297     3.0   856.7    0.00 
 186    8:10   0.60   69.1    61    1.2    52     4.5   856.7    0.00 
 186    8:20   0.63   69.2    58    1.7   157     3.5   856.7    0.00 
 186    8:30   0.66   70.3    55    1.1   120     2.6   856.7    0.00 
 186    8:40   0.69   71.2    53    1.8    97     3.9   856.7    0.00 
 186    8:50   0.72   71.7    52    1.7   118     3.4   856.7    0.00 
 186    9:00   0.74   72.5    50    2.5   102     3.9   856.6    0.00 
 186    9:10   0.77   73.8    50    1.4   157     4.7   856.6    0.00 
 186    9:20   0.79   74.0    51    1.6   305     5.1   856.6    0.00 
 186    9:30   0.82   75.4    47    2.0    79     6.7   856.7    0.00 
 186    9:40   0.84   75.7    48    2.4   298     4.8   856.7    0.00 
 186    9:50   0.86   77.4    42    1.9   105     4.4   856.6    0.00 
 186   10:00   0.88   77.0    42    3.1    79     6.8   856.6    0.00 
 186   10:10   0.91   78.1    39    3.1    90     8.5   856.6    0.00 
 186   10:20   0.92   77.8    36    3.1    74     5.6   856.6    0.00 
 186   10:30   0.91   78.5    36    2.6    94     6.2   856.6    0.00 
 186   10:40   0.95   79.1    37    3.0   118     6.4   856.6    0.00 
 186   10:50   0.96   79.7    36    4.5   115     8.8   856.5    0.00 
 186   11:00   0.94   80.1    34    3.9    97     8.1   856.4    0.00 
 186   11:10   0.99   81.0    34    3.6   114     7.9   856.3    0.00 
 186   11:20   0.99   81.1    33    3.9   124     8.7   856.2    0.00 
 186   11:30   1.00   82.0    31    2.4   115     6.9   856.1    0.00 
 186   11:40   1.01   82.1    30    3.9    37     8.7   856.0    0.00 
 186   11:50   0.99   81.4    33    5.1    10     8.6   855.9    0.00 
 186   12:00   1.01   82.9    30    5.7    35    10.4   855.7    0.00 
 186   12:10   1.02   81.5    34    5.3   295    13.5   855.5    0.00 
 186   12:20   1.01   82.7    31    4.6    28    12.2   855.4    0.00 
 186   12:30   1.01   83.3    30    5.8   355    12.6   855.3    0.00 
 186   12:40   1.02   83.0    31    6.5   349    11.1   855.2    0.00 

Return to Smith Valley graphs page.


Western Regional Climate Center,wrcc@dri.edu